sensor_id;sensor_type;location;lat;lon;timestamp;P1;durP1;ratioP1;P2;durP2;ratioP2
76548;SDS011;65391;52.068;4.542;2023-08-17T00:01:49;3.9;;;2;;
76548;SDS011;65391;52.068;4.542;2023-08-17T00:04:14;3.9;;;2;;
76548;SDS011;65391;52.068;4.542;2023-08-17T00:06:39;3.9;;;2;;
76548;SDS011;65391;52.068;4.542;2023-08-17T00:09:04;3.9;;;2;;
76548;SDS011;65391;52.068;4.542;2023-08-17T00:11:29;4.7;;;1.8;;
76548;SDS011;65391;52.068;4.542;2023-08-17T00:13:54;4.7;;;1.8;;
76548;SDS011;65391;52.068;4.542;2023-08-17T00:16:19;4.7;;;1.8;;
76548;SDS011;65391;52.068;4.542;2023-08-17T00:18:44;4.7;;;1.8;;
76548;SDS011;65391;52.068;4.542;2023-08-17T00:21:09;4.7;;;1.8;;
76548;SDS011;65391;52.068;4.542;2023-08-17T00:23:34;6.9;;;2.3;;
76548;SDS011;65391;52.068;4.542;2023-08-17T00:25:59;6.9;;;2.3;;
76548;SDS011;65391;52.068;4.542;2023-08-17T00:28:24;6.9;;;2.3;;
76548;SDS011;65391;52.068;4.542;2023-08-17T00:30:50;6.9;;;2.3;;
76548;SDS011;65391;52.068;4.542;2023-08-17T00:33:14;5.5;;;1.7;;
76548;SDS011;65391;52.068;4.542;2023-08-17T00:35:39;5.5;;;1.7;;
76548;SDS011;65391;52.068;4.542;2023-08-17T00:38:04;5.5;;;1.7;;
76548;SDS011;65391;52.068;4.542;2023-08-17T00:40:29;5.5;;;1.7;;
76548;SDS011;65391;52.068;4.542;2023-08-17T00:42:54;4.9;;;2.1;;
76548;SDS011;65391;52.068;4.542;2023-08-17T00:45:19;4.9;;;2.1;;
76548;SDS011;65391;52.068;4.542;2023-08-17T00:47:44;4.9;;;2.1;;
76548;SDS011;65391;52.068;4.542;2023-08-17T00:50:09;4.9;;;2.1;;
76548;SDS011;65391;52.068;4.542;2023-08-17T00:52:34;5.5;;;1.9;;
76548;SDS011;65391;52.068;4.542;2023-08-17T00:55:00;5.5;;;1.9;;
76548;SDS011;65391;52.068;4.542;2023-08-17T00:57:25;5.5;;;1.9;;
76548;SDS011;65391;52.068;4.542;2023-08-17T00:59:50;5.5;;;1.9;;
76548;SDS011;65391;52.068;4.542;2023-08-17T01:02:14;3.3;;;1.7;;
76548;SDS011;65391;52.068;4.542;2023-08-17T01:04:40;3.3;;;1.7;;
76548;SDS011;65391;52.068;4.542;2023-08-17T01:07:04;3.3;;;1.7;;
76548;SDS011;65391;52.068;4.542;2023-08-17T01:09:29;3.3;;;1.7;;
76548;SDS011;65391;52.068;4.542;2023-08-17T01:11:57;5.4;;;1.9;;
76548;SDS011;65391;52.068;4.542;2023-08-17T01:14:23;5.4;;;1.9;;
76548;SDS011;65391;52.068;4.542;2023-08-17T01:16:47;5.4;;;1.9;;
76548;SDS011;65391;52.068;4.542;2023-08-17T01:19:09;5.4;;;1.9;;
76548;SDS011;65391;52.068;4.542;2023-08-17T01:21:37;4.8;;;1.8;;
76548;SDS011;65391;52.068;4.542;2023-08-17T01:24:00;4.8;;;1.8;;
76548;SDS011;65391;52.068;4.542;2023-08-17T01:26:24;4.8;;;1.8;;
76548;SDS011;65391;52.068;4.542;2023-08-17T01:28:49;4.8;;;1.8;;
76548;SDS011;65391;52.068;4.542;2023-08-17T01:31:19;4.8;;;1.8;;
76548;SDS011;65391;52.068;4.542;2023-08-17T01:33:42;4.8;;;1.8;;
76548;SDS011;65391;52.068;4.542;2023-08-17T01:36:07;4.8;;;1.8;;
76548;SDS011;65391;52.068;4.542;2023-08-17T01:38:29;4.8;;;1.8;;
76548;SDS011;65391;52.068;4.542;2023-08-17T01:40:54;4.8;;;1.8;;
76548;SDS011;65391;52.068;4.542;2023-08-17T01:43:19;4.4;;;1.7;;
76548;SDS011;65391;52.068;4.542;2023-08-17T01:45:45;4.4;;;1.7;;
76548;SDS011;65391;52.068;4.542;2023-08-17T01:48:09;4.4;;;1.7;;
76548;SDS011;65391;52.068;4.542;2023-08-17T01:50:34;4.4;;;1.7;;
76548;SDS011;65391;52.068;4.542;2023-08-17T01:52:59;6.2;;;1.9;;
76548;SDS011;65391;52.068;4.542;2023-08-17T01:55:24;6.2;;;1.9;;
76548;SDS011;65391;52.068;4.542;2023-08-17T01:57:50;6.2;;;1.9;;
76548;SDS011;65391;52.068;4.542;2023-08-17T02:00:15;6.2;;;1.9;;
76548;SDS011;65391;52.068;4.542;2023-08-17T02:02:40;5.6;;;2.3;;
76548;SDS011;65391;52.068;4.542;2023-08-17T02:05:05;5.6;;;2.3;;
76548;SDS011;65391;52.068;4.542;2023-08-17T02:07:30;5.6;;;2.3;;
76548;SDS011;65391;52.068;4.542;2023-08-17T02:09:55;5.6;;;2.3;;
76548;SDS011;65391;52.068;4.542;2023-08-17T02:12:20;4.8;;;1.7;;
76548;SDS011;65391;52.068;4.542;2023-08-17T02:14:45;4.8;;;1.7;;
76548;SDS011;65391;52.068;4.542;2023-08-17T02:17:10;4.8;;;1.7;;
76548;SDS011;65391;52.068;4.542;2023-08-17T02:19:35;4.8;;;1.7;;
76548;SDS011;65391;52.068;4.542;2023-08-17T02:22:00;4.9;;;2.1;;
76548;SDS011;65391;52.068;4.542;2023-08-17T02:24:25;4.9;;;2.1;;
76548;SDS011;65391;52.068;4.542;2023-08-17T02:26:50;4.9;;;2.1;;
76548;SDS011;65391;52.068;4.542;2023-08-17T02:29:15;4.9;;;2.1;;
76548;SDS011;65391;52.068;4.542;2023-08-17T02:31:40;4.9;;;2.1;;
76548;SDS011;65391;52.068;4.542;2023-08-17T02:34:05;2.9;;;1.5;;
76548;SDS011;65391;52.068;4.542;2023-08-17T02:36:30;2.9;;;1.5;;
76548;SDS011;65391;52.068;4.542;2023-08-17T02:38:55;2.9;;;1.5;;
76548;SDS011;65391;52.068;4.542;2023-08-17T02:41:20;2.9;;;1.5;;
76548;SDS011;65391;52.068;4.542;2023-08-17T02:43:45;3.1;;;1.5;;
76548;SDS011;65391;52.068;4.542;2023-08-17T02:46:10;3.1;;;1.5;;
76548;SDS011;65391;52.068;4.542;2023-08-17T02:48:35;3.1;;;1.5;;
76548;SDS011;65391;52.068;4.542;2023-08-17T02:51:00;3.1;;;1.5;;
76548;SDS011;65391;52.068;4.542;2023-08-17T02:53:25;2.5;;;1.6;;
76548;SDS011;65391;52.068;4.542;2023-08-17T02:55:50;2.5;;;1.6;;
76548;SDS011;65391;52.068;4.542;2023-08-17T02:58:15;2.5;;;1.6;;
76548;SDS011;65391;52.068;4.542;2023-08-17T03:00:40;2.5;;;1.6;;
76548;SDS011;65391;52.068;4.542;2023-08-17T03:03:05;2.8;;;1.6;;
76548;SDS011;65391;52.068;4.542;2023-08-17T03:05:30;2.8;;;1.6;;
76548;SDS011;65391;52.068;4.542;2023-08-17T03:07:55;2.8;;;1.6;;
76548;SDS011;65391;52.068;4.542;2023-08-17T03:10:20;2.8;;;1.6;;
76548;SDS011;65391;52.068;4.542;2023-08-17T03:12:45;5.6;;;2;;
76548;SDS011;65391;52.068;4.542;2023-08-17T03:15:10;5.6;;;2;;
76548;SDS011;65391;52.068;4.542;2023-08-17T03:17:35;5.6;;;2;;
76548;SDS011;65391;52.068;4.542;2023-08-17T03:20:00;5.6;;;2;;
76548;SDS011;65391;52.068;4.542;2023-08-17T03:22:25;6.9;;;2.6;;
76548;SDS011;65391;52.068;4.542;2023-08-17T03:24:50;6.9;;;2.6;;
76548;SDS011;65391;52.068;4.542;2023-08-17T03:27:15;6.9;;;2.6;;
76548;SDS011;65391;52.068;4.542;2023-08-17T03:29:40;6.9;;;2.6;;
76548;SDS011;65391;52.068;4.542;2023-08-17T03:32:05;8.7;;;2.5;;
76548;SDS011;65391;52.068;4.542;2023-08-17T03:34:30;8.7;;;2.5;;
76548;SDS011;65391;52.068;4.542;2023-08-17T03:36:55;8.7;;;2.5;;
76548;SDS011;65391;52.068;4.542;2023-08-17T03:39:20;8.7;;;2.5;;
76548;SDS011;65391;52.068;4.542;2023-08-17T03:41:45;8.7;;;2.5;;
76548;SDS011;65391;52.068;4.542;2023-08-17T03:44:10;5.2;;;2.8;;
76548;SDS011;65391;52.068;4.542;2023-08-17T03:46:35;5.2;;;2.8;;
76548;SDS011;65391;52.068;4.542;2023-08-17T03:49:00;5.2;;;2.8;;
76548;SDS011;65391;52.068;4.542;2023-08-17T03:51:25;5.2;;;2.8;;
76548;SDS011;65391;52.068;4.542;2023-08-17T03:53:50;8;;;2.7;;
76548;SDS011;65391;52.068;4.542;2023-08-17T03:56:15;8;;;2.7;;
76548;SDS011;65391;52.068;4.542;2023-08-17T03:58:40;8;;;2.7;;
76548;SDS011;65391;52.068;4.542;2023-08-17T04:01:05;8;;;2.7;;
76548;SDS011;65391;52.068;4.542;2023-08-17T04:03:30;7;;;2.6;;
76548;SDS011;65391;52.068;4.542;2023-08-17T04:05:55;7;;;2.6;;
76548;SDS011;65391;52.068;4.542;2023-08-17T04:08:20;7;;;2.6;;
76548;SDS011;65391;52.068;4.542;2023-08-17T04:10:45;7;;;2.6;;
76548;SDS011;65391;52.068;4.542;2023-08-17T04:13:10;6.6;;;2.4;;
76548;SDS011;65391;52.068;4.542;2023-08-17T04:15:35;6.6;;;2.4;;
76548;SDS011;65391;52.068;4.542;2023-08-17T04:18:00;6.6;;;2.4;;
76548;SDS011;65391;52.068;4.542;2023-08-17T04:20:25;6.6;;;2.4;;
76548;SDS011;65391;52.068;4.542;2023-08-17T04:22:50;5.3;;;1.8;;
76548;SDS011;65391;52.068;4.542;2023-08-17T04:25:15;5.3;;;1.8;;
76548;SDS011;65391;52.068;4.542;2023-08-17T04:27:40;5.3;;;1.8;;
76548;SDS011;65391;52.068;4.542;2023-08-17T04:30:06;5.3;;;1.8;;
76548;SDS011;65391;52.068;4.542;2023-08-17T04:32:30;5.6;;;1.8;;
76548;SDS011;65391;52.068;4.542;2023-08-17T04:34:55;5.6;;;1.8;;
76548;SDS011;65391;52.068;4.542;2023-08-17T04:37:20;5.6;;;1.8;;
76548;SDS011;65391;52.068;4.542;2023-08-17T04:39:45;5.6;;;1.8;;
76548;SDS011;65391;52.068;4.542;2023-08-17T04:42:10;6.1;;;1.6;;
76548;SDS011;65391;52.068;4.542;2023-08-17T04:44:35;6.1;;;1.6;;
76548;SDS011;65391;52.068;4.542;2023-08-17T04:47:00;6.1;;;1.6;;
76548;SDS011;65391;52.068;4.542;2023-08-17T04:49:25;6.1;;;1.6;;
76548;SDS011;65391;52.068;4.542;2023-08-17T04:51:50;6.1;;;1.6;;
76548;SDS011;65391;52.068;4.542;2023-08-17T04:54:15;6.5;;;1.5;;
76548;SDS011;65391;52.068;4.542;2023-08-17T04:56:40;6.5;;;1.5;;
76548;SDS011;65391;52.068;4.542;2023-08-17T04:59:05;6.5;;;1.5;;
76548;SDS011;65391;52.068;4.542;2023-08-17T05:01:30;6.5;;;1.5;;
76548;SDS011;65391;52.068;4.542;2023-08-17T05:03:55;5.8;;;1.8;;
76548;SDS011;65391;52.068;4.542;2023-08-17T05:06:20;5.8;;;1.8;;
76548;SDS011;65391;52.068;4.542;2023-08-17T05:08:45;5.8;;;1.8;;
76548;SDS011;65391;52.068;4.542;2023-08-17T05:11:10;5.8;;;1.8;;
76548;SDS011;65391;52.068;4.542;2023-08-17T05:13:35;4.1;;;1.6;;
76548;SDS011;65391;52.068;4.542;2023-08-17T05:16:00;4.1;;;1.6;;
76548;SDS011;65391;52.068;4.542;2023-08-17T05:18:25;4.1;;;1.6;;
76548;SDS011;65391;52.068;4.542;2023-08-17T05:20:50;4.1;;;1.6;;
76548;SDS011;65391;52.068;4.542;2023-08-17T05:23:15;5;;;1.3;;
76548;SDS011;65391;52.068;4.542;2023-08-17T05:25:40;5;;;1.3;;
76548;SDS011;65391;52.068;4.542;2023-08-17T05:28:05;5;;;1.3;;
76548;SDS011;65391;52.068;4.542;2023-08-17T05:30:30;5;;;1.3;;
76548;SDS011;65391;52.068;4.542;2023-08-17T05:32:55;4.5;;;1.1;;
76548;SDS011;65391;52.068;4.542;2023-08-17T05:35:20;4.5;;;1.1;;
76548;SDS011;65391;52.068;4.542;2023-08-17T05:37:45;4.5;;;1.1;;
76548;SDS011;65391;52.068;4.542;2023-08-17T05:40:10;4.5;;;1.1;;
76548;SDS011;65391;52.068;4.542;2023-08-17T05:42:35;5.6;;;1.4;;
76548;SDS011;65391;52.068;4.542;2023-08-17T05:45:00;5.6;;;1.4;;
76548;SDS011;65391;52.068;4.542;2023-08-17T05:47:25;5.6;;;1.4;;
76548;SDS011;65391;52.068;4.542;2023-08-17T05:49:50;5.6;;;1.4;;
76548;SDS011;65391;52.068;4.542;2023-08-17T05:52:15;5.6;;;1.3;;
76548;SDS011;65391;52.068;4.542;2023-08-17T05:54:40;5.6;;;1.3;;
76548;SDS011;65391;52.068;4.542;2023-08-17T05:57:05;5.6;;;1.3;;
76548;SDS011;65391;52.068;4.542;2023-08-17T05:59:30;5.6;;;1.3;;
76548;SDS011;65391;52.068;4.542;2023-08-17T06:01:55;5.6;;;1.3;;
76548;SDS011;65391;52.068;4.542;2023-08-17T06:04:20;4.2;;;1.4;;
76548;SDS011;65391;52.068;4.542;2023-08-17T06:06:45;4.2;;;1.4;;
76548;SDS011;65391;52.068;4.542;2023-08-17T06:09:10;4.2;;;1.4;;
76548;SDS011;65391;52.068;4.542;2023-08-17T06:11:35;4.2;;;1.4;;
76548;SDS011;65391;52.068;4.542;2023-08-17T06:14:00;8.4;;;1.3;;
76548;SDS011;65391;52.068;4.542;2023-08-17T06:16:25;8.4;;;1.3;;
76548;SDS011;65391;52.068;4.542;2023-08-17T06:18:50;8.4;;;1.3;;
76548;SDS011;65391;52.068;4.542;2023-08-17T06:21:15;8.4;;;1.3;;
76548;SDS011;65391;52.068;4.542;2023-08-17T06:23:40;3.1;;;1;;
76548;SDS011;65391;52.068;4.542;2023-08-17T06:26:05;3.1;;;1;;
76548;SDS011;65391;52.068;4.542;2023-08-17T06:28:30;3.1;;;1;;
76548;SDS011;65391;52.068;4.542;2023-08-17T06:30:55;3.1;;;1;;
76548;SDS011;65391;52.068;4.542;2023-08-17T06:33:20;7.2;;;2;;
76548;SDS011;65391;52.068;4.542;2023-08-17T06:35:45;7.2;;;2;;
76548;SDS011;65391;52.068;4.542;2023-08-17T06:38:10;7.2;;;2;;
76548;SDS011;65391;52.068;4.542;2023-08-17T06:40:35;7.2;;;2;;
76548;SDS011;65391;52.068;4.542;2023-08-17T06:43:00;3.7;;;1.1;;
76548;SDS011;65391;52.068;4.542;2023-08-17T06:45:25;3.7;;;1.1;;
76548;SDS011;65391;52.068;4.542;2023-08-17T06:47:50;3.7;;;1.1;;
76548;SDS011;65391;52.068;4.542;2023-08-17T06:50:15;3.7;;;1.1;;
76548;SDS011;65391;52.068;4.542;2023-08-17T06:52:40;8.2;;;2.3;;
76548;SDS011;65391;52.068;4.542;2023-08-17T06:55:06;8.2;;;2.3;;
76548;SDS011;65391;52.068;4.542;2023-08-17T06:57:30;8.2;;;2.3;;
76548;SDS011;65391;52.068;4.542;2023-08-17T06:59:55;8.2;;;2.3;;
76548;SDS011;65391;52.068;4.542;2023-08-17T07:02:20;6;;;1.2;;
76548;SDS011;65391;52.068;4.542;2023-08-17T07:04:45;6;;;1.2;;
76548;SDS011;65391;52.068;4.542;2023-08-17T07:07:10;6;;;1.2;;
76548;SDS011;65391;52.068;4.542;2023-08-17T07:09:35;6;;;1.2;;
76548;SDS011;65391;52.068;4.542;2023-08-17T07:12:01;6;;;1.2;;
76548;SDS011;65391;52.068;4.542;2023-08-17T07:14:25;6.6;;;1.1;;
76548;SDS011;65391;52.068;4.542;2023-08-17T07:16:50;6.6;;;1.1;;
76548;SDS011;65391;52.068;4.542;2023-08-17T07:19:15;6.6;;;1.1;;
76548;SDS011;65391;52.068;4.542;2023-08-17T07:21:40;6.6;;;1.1;;
76548;SDS011;65391;52.068;4.542;2023-08-17T07:24:11;4.5;;;1.5;;
76548;SDS011;65391;52.068;4.542;2023-08-17T07:26:30;4.5;;;1.5;;
76548;SDS011;65391;52.068;4.542;2023-08-17T07:28:55;4.5;;;1.5;;
76548;SDS011;65391;52.068;4.542;2023-08-17T07:31:20;4.5;;;1.5;;
76548;SDS011;65391;52.068;4.542;2023-08-17T07:33:45;5.4;;;1;;
76548;SDS011;65391;52.068;4.542;2023-08-17T07:36:10;5.4;;;1;;
76548;SDS011;65391;52.068;4.542;2023-08-17T07:38:35;5.4;;;1;;
76548;SDS011;65391;52.068;4.542;2023-08-17T07:41:00;5.4;;;1;;
76548;SDS011;65391;52.068;4.542;2023-08-17T07:43:25;5.8;;;1.3;;
76548;SDS011;65391;52.068;4.542;2023-08-17T07:45:54;5.8;;;1.3;;
76548;SDS011;65391;52.068;4.542;2023-08-17T07:48:16;5.8;;;1.3;;
76548;SDS011;65391;52.068;4.542;2023-08-17T07:50:40;5.8;;;1.3;;
76548;SDS011;65391;52.068;4.542;2023-08-17T07:53:05;5.3;;;1;;
76548;SDS011;65391;52.068;4.542;2023-08-17T07:55:30;5.3;;;1;;
76548;SDS011;65391;52.068;4.542;2023-08-17T07:57:55;5.3;;;1;;
76548;SDS011;65391;52.068;4.542;2023-08-17T08:00:20;5.3;;;1;;
76548;SDS011;65391;52.068;4.542;2023-08-17T08:02:45;2.8;;;0.6;;
76548;SDS011;65391;52.068;4.542;2023-08-17T08:05:10;2.8;;;0.6;;
76548;SDS011;65391;52.068;4.542;2023-08-17T08:07:35;2.8;;;0.6;;
76548;SDS011;65391;52.068;4.542;2023-08-17T08:10:00;2.8;;;0.6;;
76548;SDS011;65391;52.068;4.542;2023-08-17T08:12:25;4.1;;;1;;
76548;SDS011;65391;52.068;4.542;2023-08-17T08:14:50;4.1;;;1;;
76548;SDS011;65391;52.068;4.542;2023-08-17T08:17:15;4.1;;;1;;
76548;SDS011;65391;52.068;4.542;2023-08-17T08:19:40;4.1;;;1;;
76548;SDS011;65391;52.068;4.542;2023-08-17T08:22:05;4.1;;;1;;
76548;SDS011;65391;52.068;4.542;2023-08-17T08:24:30;5.3;;;1.5;;
76548;SDS011;65391;52.068;4.542;2023-08-17T08:26:55;5.3;;;1.5;;
76548;SDS011;65391;52.068;4.542;2023-08-17T08:29:21;5.3;;;1.5;;
76548;SDS011;65391;52.068;4.542;2023-08-17T08:31:45;5.3;;;1.5;;
76548;SDS011;65391;52.068;4.542;2023-08-17T08:34:10;4.5;;;0.9;;
76548;SDS011;65391;52.068;4.542;2023-08-17T08:36:35;4.5;;;0.9;;
76548;SDS011;65391;52.068;4.542;2023-08-17T08:39:00;4.5;;;0.9;;
76548;SDS011;65391;52.068;4.542;2023-08-17T08:41:25;4.5;;;0.9;;
76548;SDS011;65391;52.068;4.542;2023-08-17T08:43:51;4.1;;;1.1;;
76548;SDS011;65391;52.068;4.542;2023-08-17T08:46:16;4.1;;;1.1;;
76548;SDS011;65391;52.068;4.542;2023-08-17T08:48:41;4.1;;;1.1;;
76548;SDS011;65391;52.068;4.542;2023-08-17T08:51:07;4.1;;;1.1;;
76548;SDS011;65391;52.068;4.542;2023-08-17T08:53:31;4.5;;;1.2;;
76548;SDS011;65391;52.068;4.542;2023-08-17T08:55:57;4.5;;;1.2;;
76548;SDS011;65391;52.068;4.542;2023-08-17T08:58:21;4.5;;;1.2;;
76548;SDS011;65391;52.068;4.542;2023-08-17T09:00:46;4.5;;;1.2;;
76548;SDS011;65391;52.068;4.542;2023-08-17T09:03:11;4.5;;;1.1;;
76548;SDS011;65391;52.068;4.542;2023-08-17T09:05:36;4.5;;;1.1;;
76548;SDS011;65391;52.068;4.542;2023-08-17T09:08:01;4.5;;;1.1;;
76548;SDS011;65391;52.068;4.542;2023-08-17T09:10:26;4.5;;;1.1;;
76548;SDS011;65391;52.068;4.542;2023-08-17T09:12:51;4.8;;;1;;
76548;SDS011;65391;52.068;4.542;2023-08-17T09:15:16;4.8;;;1;;
76548;SDS011;65391;52.068;4.542;2023-08-17T09:17:41;4.8;;;1;;
76548;SDS011;65391;52.068;4.542;2023-08-17T09:20:06;4.8;;;1;;
76548;SDS011;65391;52.068;4.542;2023-08-17T09:22:37;4.4;;;1;;
76548;SDS011;65391;52.068;4.542;2023-08-17T09:24:56;4.4;;;1;;
76548;SDS011;65391;52.068;4.542;2023-08-17T09:27:21;4.4;;;1;;
76548;SDS011;65391;52.068;4.542;2023-08-17T09:29:46;4.4;;;1;;
76548;SDS011;65391;52.068;4.542;2023-08-17T09:32:11;4.4;;;1;;
76548;SDS011;65391;52.068;4.542;2023-08-17T09:34:36;4.1;;;0.9;;
76548;SDS011;65391;52.068;4.542;2023-08-17T09:37:02;4.1;;;0.9;;
76548;SDS011;65391;52.068;4.542;2023-08-17T09:39:26;4.1;;;0.9;;
76548;SDS011;65391;52.068;4.542;2023-08-17T09:41:51;4.1;;;0.9;;
76548;SDS011;65391;52.068;4.542;2023-08-17T09:44:16;5.6;;;1.4;;
76548;SDS011;65391;52.068;4.542;2023-08-17T09:46:42;5.6;;;1.4;;
76548;SDS011;65391;52.068;4.542;2023-08-17T09:49:06;5.6;;;1.4;;
76548;SDS011;65391;52.068;4.542;2023-08-17T09:51:31;5.6;;;1.4;;
76548;SDS011;65391;52.068;4.542;2023-08-17T09:53:56;3.2;;;1.1;;
76548;SDS011;65391;52.068;4.542;2023-08-17T09:56:21;3.2;;;1.1;;
76548;SDS011;65391;52.068;4.542;2023-08-17T09:58:46;3.2;;;1.1;;
76548;SDS011;65391;52.068;4.542;2023-08-17T10:01:11;3.2;;;1.1;;
76548;SDS011;65391;52.068;4.542;2023-08-17T10:03:36;3.7;;;1.3;;
76548;SDS011;65391;52.068;4.542;2023-08-17T10:06:03;3.7;;;1.3;;
76548;SDS011;65391;52.068;4.542;2023-08-17T10:08:26;3.7;;;1.3;;
76548;SDS011;65391;52.068;4.542;2023-08-17T10:10:51;3.7;;;1.3;;
76548;SDS011;65391;52.068;4.542;2023-08-17T10:13:19;5.3;;;1.4;;
76548;SDS011;65391;52.068;4.542;2023-08-17T10:15:44;5.3;;;1.4;;
76548;SDS011;65391;52.068;4.542;2023-08-17T10:18:09;5.3;;;1.4;;
76548;SDS011;65391;52.068;4.542;2023-08-17T10:20:31;5.3;;;1.4;;
76548;SDS011;65391;52.068;4.542;2023-08-17T10:22:58;3.9;;;1.5;;
76548;SDS011;65391;52.068;4.542;2023-08-17T10:25:21;3.9;;;1.5;;
76548;SDS011;65391;52.068;4.542;2023-08-17T10:27:46;3.9;;;1.5;;
76548;SDS011;65391;52.068;4.542;2023-08-17T10:30:11;3.9;;;1.5;;
76548;SDS011;65391;52.068;4.542;2023-08-17T10:32:36;5.2;;;1.9;;
76548;SDS011;65391;52.068;4.542;2023-08-17T10:35:01;5.2;;;1.9;;
76548;SDS011;65391;52.068;4.542;2023-08-17T10:37:26;5.2;;;1.9;;
76548;SDS011;65391;52.068;4.542;2023-08-17T10:39:51;5.2;;;1.9;;
76548;SDS011;65391;52.068;4.542;2023-08-17T10:42:29;5.2;;;1.9;;
76548;SDS011;65391;52.068;4.542;2023-08-17T10:44:44;4.7;;;1.7;;
76548;SDS011;65391;52.068;4.542;2023-08-17T10:47:22;4.7;;;1.7;;
76548;SDS011;65391;52.068;4.542;2023-08-17T10:49:31;4.7;;;1.7;;
76548;SDS011;65391;52.068;4.542;2023-08-17T10:52:03;4.7;;;1.7;;
76548;SDS011;65391;52.068;4.542;2023-08-17T10:54:21;3.8;;;2;;
76548;SDS011;65391;52.068;4.542;2023-08-17T10:56:46;3.8;;;2;;
76548;SDS011;65391;52.068;4.542;2023-08-17T10:59:24;3.8;;;2;;
76548;SDS011;65391;52.068;4.542;2023-08-17T11:01:36;3.8;;;2;;
76548;SDS011;65391;52.068;4.542;2023-08-17T11:04:09;4.9;;;1.8;;
76548;SDS011;65391;52.068;4.542;2023-08-17T11:06:26;4.9;;;1.8;;
76548;SDS011;65391;52.068;4.542;2023-08-17T11:08:52;4.9;;;1.8;;
76548;SDS011;65391;52.068;4.542;2023-08-17T11:11:16;4.9;;;1.8;;
76548;SDS011;65391;52.068;4.542;2023-08-17T11:13:44;7;;;2.2;;
76548;SDS011;65391;52.068;4.542;2023-08-17T11:16:07;7;;;2.2;;
76548;SDS011;65391;52.068;4.542;2023-08-17T11:18:31;7;;;2.2;;
76548;SDS011;65391;52.068;4.542;2023-08-17T11:20:56;7;;;2.2;;
76548;SDS011;65391;52.068;4.542;2023-08-17T11:23:22;5.2;;;1.4;;
76548;SDS011;65391;52.068;4.542;2023-08-17T11:25:46;5.2;;;1.4;;
76548;SDS011;65391;52.068;4.542;2023-08-17T11:28:11;5.2;;;1.4;;
76548;SDS011;65391;52.068;4.542;2023-08-17T11:30:36;5.2;;;1.4;;
76548;SDS011;65391;52.068;4.542;2023-08-17T11:33:01;8;;;3;;
76548;SDS011;65391;52.068;4.542;2023-08-17T11:35:26;8;;;3;;
76548;SDS011;65391;52.068;4.542;2023-08-17T11:37:51;8;;;3;;
76548;SDS011;65391;52.068;4.542;2023-08-17T11:40:16;8;;;3;;
76548;SDS011;65391;52.068;4.542;2023-08-17T11:42:41;2.7;;;1.5;;
76548;SDS011;65391;52.068;4.542;2023-08-17T11:45:06;2.7;;;1.5;;
76548;SDS011;65391;52.068;4.542;2023-08-17T11:47:31;2.7;;;1.5;;
76548;SDS011;65391;52.068;4.542;2023-08-17T11:49:59;2.7;;;1.5;;
76548;SDS011;65391;52.068;4.542;2023-08-17T11:52:21;2.7;;;1.5;;
76548;SDS011;65391;52.068;4.542;2023-08-17T11:54:46;4.7;;;1.8;;
76548;SDS011;65391;52.068;4.542;2023-08-17T11:57:11;4.7;;;1.8;;
76548;SDS011;65391;52.068;4.542;2023-08-17T11:59:36;4.7;;;1.8;;
76548;SDS011;65391;52.068;4.542;2023-08-17T12:02:01;4.7;;;1.8;;
76548;SDS011;65391;52.068;4.542;2023-08-17T12:04:26;3.8;;;1.6;;
76548;SDS011;65391;52.068;4.542;2023-08-17T12:06:51;3.8;;;1.6;;
76548;SDS011;65391;52.068;4.542;2023-08-17T12:09:17;3.8;;;1.6;;
76548;SDS011;65391;52.068;4.542;2023-08-17T12:11:41;3.8;;;1.6;;
76548;SDS011;65391;52.068;4.542;2023-08-17T12:14:10;4.4;;;1.7;;
76548;SDS011;65391;52.068;4.542;2023-08-17T12:16:31;4.4;;;1.7;;
76548;SDS011;65391;52.068;4.542;2023-08-17T12:18:56;4.4;;;1.7;;
76548;SDS011;65391;52.068;4.542;2023-08-17T12:21:21;4.4;;;1.7;;
76548;SDS011;65391;52.068;4.542;2023-08-17T12:23:46;4.4;;;1.8;;
76548;SDS011;65391;52.068;4.542;2023-08-17T12:26:18;4.4;;;1.8;;
76548;SDS011;65391;52.068;4.542;2023-08-17T12:28:39;4.4;;;1.8;;
76548;SDS011;65391;52.068;4.542;2023-08-17T12:31:02;4.4;;;1.8;;
76548;SDS011;65391;52.068;4.542;2023-08-17T12:33:26;4.6;;;2;;
76548;SDS011;65391;52.068;4.542;2023-08-17T12:35:51;4.6;;;2;;
76548;SDS011;65391;52.068;4.542;2023-08-17T12:38:16;4.6;;;2;;
76548;SDS011;65391;52.068;4.542;2023-08-17T12:40:41;4.6;;;2;;
76548;SDS011;65391;52.068;4.542;2023-08-17T12:43:06;3.6;;;1.9;;
76548;SDS011;65391;52.068;4.542;2023-08-17T12:45:31;3.6;;;1.9;;
76548;SDS011;65391;52.068;4.542;2023-08-17T12:47:56;3.6;;;1.9;;
76548;SDS011;65391;52.068;4.542;2023-08-17T12:50:21;3.6;;;1.9;;
76548;SDS011;65391;52.068;4.542;2023-08-17T12:52:46;5.1;;;2.1;;
76548;SDS011;65391;52.068;4.542;2023-08-17T12:55:11;5.1;;;2.1;;
76548;SDS011;65391;52.068;4.542;2023-08-17T12:57:36;5.1;;;2.1;;
76548;SDS011;65391;52.068;4.542;2023-08-17T13:00:01;5.1;;;2.1;;
76548;SDS011;65391;52.068;4.542;2023-08-17T13:02:26;5.1;;;2.1;;
76548;SDS011;65391;52.068;4.542;2023-08-17T13:04:51;4.9;;;1.7;;
76548;SDS011;65391;52.068;4.542;2023-08-17T13:07:16;4.9;;;1.7;;
76548;SDS011;65391;52.068;4.542;2023-08-17T13:09:41;4.9;;;1.7;;
76548;SDS011;65391;52.068;4.542;2023-08-17T13:12:06;4.9;;;1.7;;
76548;SDS011;65391;52.068;4.542;2023-08-17T13:14:31;6.5;;;2.1;;
76548;SDS011;65391;52.068;4.542;2023-08-17T13:16:56;6.5;;;2.1;;
76548;SDS011;65391;52.068;4.542;2023-08-17T13:19:21;6.5;;;2.1;;
76548;SDS011;65391;52.068;4.542;2023-08-17T13:21:46;6.5;;;2.1;;
76548;SDS011;65391;52.068;4.542;2023-08-17T13:24:12;6.9;;;2.3;;
76548;SDS011;65391;52.068;4.542;2023-08-17T13:26:36;6.9;;;2.3;;
76548;SDS011;65391;52.068;4.542;2023-08-17T13:29:01;6.9;;;2.3;;
76548;SDS011;65391;52.068;4.542;2023-08-17T13:31:26;6.9;;;2.3;;
76548;SDS011;65391;52.068;4.542;2023-08-17T13:33:51;6.1;;;1.9;;
76548;SDS011;65391;52.068;4.542;2023-08-17T13:36:16;6.1;;;1.9;;
76548;SDS011;65391;52.068;4.542;2023-08-17T13:38:41;6.1;;;1.9;;
76548;SDS011;65391;52.068;4.542;2023-08-17T13:41:06;6.1;;;1.9;;
76548;SDS011;65391;52.068;4.542;2023-08-17T13:43:31;7;;;2.1;;
76548;SDS011;65391;52.068;4.542;2023-08-17T13:45:56;7;;;2.1;;
76548;SDS011;65391;52.068;4.542;2023-08-17T13:48:21;7;;;2.1;;
76548;SDS011;65391;52.068;4.542;2023-08-17T13:50:46;7;;;2.1;;
76548;SDS011;65391;52.068;4.542;2023-08-17T13:53:11;4.3;;;1.7;;
76548;SDS011;65391;52.068;4.542;2023-08-17T13:55:36;4.3;;;1.7;;
76548;SDS011;65391;52.068;4.542;2023-08-17T13:58:01;4.3;;;1.7;;
76548;SDS011;65391;52.068;4.542;2023-08-17T14:00:26;4.3;;;1.7;;
76548;SDS011;65391;52.068;4.542;2023-08-17T14:02:51;4.9;;;1.5;;
76548;SDS011;65391;52.068;4.542;2023-08-17T14:05:16;4.9;;;1.5;;
76548;SDS011;65391;52.068;4.542;2023-08-17T14:07:41;4.9;;;1.5;;
76548;SDS011;65391;52.068;4.542;2023-08-17T14:10:07;4.9;;;1.5;;
76548;SDS011;65391;52.068;4.542;2023-08-17T14:12:31;4.9;;;1.5;;
76548;SDS011;65391;52.068;4.542;2023-08-17T14:14:56;2.7;;;1.5;;
76548;SDS011;65391;52.068;4.542;2023-08-17T14:17:22;2.7;;;1.5;;
76548;SDS011;65391;52.068;4.542;2023-08-17T14:19:46;2.7;;;1.5;;
76548;SDS011;65391;52.068;4.542;2023-08-17T14:22:11;2.7;;;1.5;;
76548;SDS011;65391;52.068;4.542;2023-08-17T14:24:36;2.9;;;1.7;;
76548;SDS011;65391;52.068;4.542;2023-08-17T14:27:01;2.9;;;1.7;;
76548;SDS011;65391;52.068;4.542;2023-08-17T14:29:26;2.9;;;1.7;;
76548;SDS011;65391;52.068;4.542;2023-08-17T14:31:51;2.9;;;1.7;;
76548;SDS011;65391;52.068;4.542;2023-08-17T14:34:16;8.3;;;2.7;;
76548;SDS011;65391;52.068;4.542;2023-08-17T14:36:41;8.3;;;2.7;;
76548;SDS011;65391;52.068;4.542;2023-08-17T14:39:06;8.3;;;2.7;;
76548;SDS011;65391;52.068;4.542;2023-08-17T14:41:31;8.3;;;2.7;;
76548;SDS011;65391;52.068;4.542;2023-08-17T14:43:56;3.8;;;1.9;;
76548;SDS011;65391;52.068;4.542;2023-08-17T14:46:21;3.8;;;1.9;;
76548;SDS011;65391;52.068;4.542;2023-08-17T14:48:47;3.8;;;1.9;;
76548;SDS011;65391;52.068;4.542;2023-08-17T14:51:11;3.8;;;1.9;;
76548;SDS011;65391;52.068;4.542;2023-08-17T14:53:36;5.1;;;2;;
76548;SDS011;65391;52.068;4.542;2023-08-17T14:56:01;5.1;;;2;;
76548;SDS011;65391;52.068;4.542;2023-08-17T14:58:26;5.1;;;2;;
76548;SDS011;65391;52.068;4.542;2023-08-17T15:00:51;5.1;;;2;;
76548;SDS011;65391;52.068;4.542;2023-08-17T15:03:16;5;;;3;;
76548;SDS011;65391;52.068;4.542;2023-08-17T15:05:41;5;;;3;;
76548;SDS011;65391;52.068;4.542;2023-08-17T15:08:06;5;;;3;;